Time;durP1;ratioP1;P1;durP2;ratioP2;P2;SDS_P1;SDS_P2;PMS_P1;PMS_P2;Temp;Humidity;BMP_temperature;BMP_pressure;BME280_temperature;BME280_humidity;BME280_pressure;Samples;Min_cycle;Max_cycle;Signal;HPM_P1;HPM_P2
2022/01/29 00:00:07;;;;;;;;;5.40;4.20;;;;;2.68;70.35;100251.00;5026949;28;8849;-77
2022/01/29 00:03:00;;;;;;;;;6.80;5.00;;;;;2.65;70.55;100241.47;5028189;28;8957;-80
2022/01/29 00:05:29;;;;;;;;;4.40;2.80;;;;;2.70;70.82;100245.13;5027781;28;8862;-77
2022/01/29 00:07:58;;;;;;;;;4.40;4.40;;;;;2.71;69.79;100253.72;5029906;28;8862;-75
2022/01/29 00:10:27;;;;;;;;;3.60;3.60;;;;;2.73;69.18;100249.50;5030027;28;9593;-76
2022/01/29 00:12:55;;;;;;;;;3.80;3.80;;;;;2.77;70.34;100255.66;5013517;28;8865;-75
2022/01/29 00:15:24;;;;;;;;;2.40;2.40;;;;;2.75;69.82;100255.59;5046497;28;8855;-77
2022/01/29 00:17:52;;;;;;;;;2.00;2.00;;;;;2.83;69.71;100261.94;4990267;28;8873;-75
2022/01/29 00:20:23;;;;;;;;;6.00;5.80;;;;;2.82;69.64;100264.47;4990392;28;9036;-77
2022/01/29 00:22:51;;;;;;;;;2.00;2.00;;;;;2.89;69.58;100269.03;4974681;28;8862;-76
2022/01/29 00:25:20;;;;;;;;;5.20;3.80;;;;;2.96;69.96;100272.78;4990244;28;8902;-76
2022/01/29 00:27:48;;;;;;;;;5.00;4.00;;;;;3.29;69.51;100274.16;4990369;28;8846;-76
2022/01/29 00:30:18;;;;;;;;;7.80;5.00;;;;;3.68;68.18;100275.66;4989414;28;9058;-76
2022/01/29 00:32:47;;;;;;;;;7.00;5.80;;;;;3.93;67.04;100269.75;4957698;28;10062;-76
2022/01/29 00:35:16;;;;;;;;;4.00;4.00;;;;;4.24;66.63;100276.94;5006433;28;8844;-75
2022/01/29 00:37:46;;;;;;;;;5.00;5.00;;;;;4.50;65.72;100284.75;5007145;28;8861;-76
2022/01/29 00:40:15;;;;;;;;;0.00;0.00;;;;;4.57;65.01;100275.50;4973937;28;8880;-76
2022/01/29 00:42:44;;;;;;;;;7.80;7.80;;;;;4.71;64.40;100281.16;5006214;28;9748;-76
2022/01/29 00:45:13;;;;;;;;;9.60;7.40;;;;;4.67;64.71;100277.63;4986382;28;8995;-78
2022/01/29 00:47:42;;;;;;;;;5.40;5.20;;;;;4.96;64.13;100283.78;4970200;28;8950;-80
2022/01/29 00:50:12;;;;;;;;;9.00;7.40;;;;;5.04;63.73;100284.91;4991709;28;8991;-77
2022/01/29 00:52:42;;;;;;;;;6.80;4.80;;;;;4.95;63.54;100299.22;5025544;28;8879;-76
2022/01/29 00:55:12;;;;;;;;;6.00;4.40;;;;;4.49;64.68;100289.03;4993308;28;8853;-76
2022/01/29 00:57:43;;;;;;;;;9.00;6.40;;;;;4.05;66.02;100296.03;5009783;28;8841;-75
2022/01/29 01:00:13;;;;;;;;;5.00;5.00;;;;;3.58;67.98;100297.66;5005564;28;8965;-75
2022/01/29 01:02:43;;;;;;;;;9.80;5.20;;;;;3.42;68.26;100301.31;5006218;28;8859;-77
2022/01/29 01:05:13;;;;;;;;;5.00;4.00;;;;;3.22;69.28;100297.91;5006236;28;8867;-76
2022/01/29 01:07:42;;;;;;;;;4.60;4.00;;;;;3.22;68.67;100299.63;4989932;28;8934;-76
2022/01/29 01:10:13;;;;;;;;;6.60;2.00;;;;;2.83;69.55;100307.44;4973419;28;8882;-75
2022/01/29 01:12:42;;;;;;;;;6.00;6.00;;;;;2.76;70.25;100300.25;5020368;28;8945;-77
2022/01/29 01:15:11;;;;;;;;;3.20;3.20;;;;;2.64;70.79;100316.94;5006017;28;9048;-75
2022/01/29 01:17:40;;;;;;;;;5.40;5.40;;;;;2.63;70.75;100304.00;5006818;28;8868;-75
2022/01/29 01:20:09;;;;;;;;;5.00;5.00;;;;;2.58;70.67;100302.94;5006428;28;8883;-76
2022/01/29 01:22:38;;;;;;;;;4.20;4.20;;;;;2.54;70.98;100301.91;5013858;28;8883;-75
2022/01/29 01:25:09;;;;;;;;;5.80;2.00;;;;;2.56;70.80;100301.97;5026322;28;8863;-76
2022/01/29 01:27:39;;;;;;;;;9.20;3.60;;;;;2.54;70.57;100305.34;4977909;28;8871;-75
2022/01/29 01:30:08;;;;;;;;;3.60;3.60;;;;;2.51;70.17;100305.25;4970109;28;10039;-75
2022/01/29 01:32:38;;;;;;;;;3.80;3.80;;;;;2.50;70.17;100302.59;4974247;28;8905;-76
2022/01/29 01:35:14;;;;;;;;;4.20;4.20;;;;;2.45;69.82;100307.53;4958843;28;8968;-77
2022/01/29 01:37:47;;;;;;;;;2.40;2.40;;;;;2.52;69.60;100306.09;5007752;28;8900;-78
2022/01/29 01:40:17;;;;;;;;;7.00;1.60;;;;;2.53;69.35;100300.13;5006841;28;8892;-76
2022/01/29 01:42:47;;;;;;;;;4.60;4.20;;;;;2.55;69.03;100295.94;4967618;28;8956;-76
2022/01/29 01:45:16;;;;;;;;;4.40;4.40;;;;;2.60;68.82;100291.00;5026748;28;8847;-75
2022/01/29 01:47:45;;;;;;;;;7.80;5.00;;;;;2.59;68.40;100287.56;5026173;28;8856;-75
2022/01/29 01:50:16;;;;;;;;;4.20;1.00;;;;;2.67;68.11;100293.91;5026928;28;8855;-77
2022/01/29 01:52:49;;;;;;;;;5.80;4.40;;;;;2.73;67.59;100285.56;5026897;28;8855;-77
2022/01/29 01:55:18;;;;;;;;;2.80;2.80;;;;;2.72;67.87;100288.94;5026626;28;8847;-77
2022/01/29 01:57:59;;;;;;;;;4.00;3.60;;;;;2.74;67.44;100289.88;4991121;28;8874;-75
2022/01/29 02:00:29;;;;;;;;;2.00;2.00;;;;;2.73;67.28;100276.13;5009169;28;8858;-77
2022/01/29 02:02:58;;;;;;;;;5.00;4.00;;;;;2.71;67.33;100285.50;5012492;28;8887;-77
2022/01/29 02:05:26;;;;;;;;;2.00;2.00;;;;;2.72;67.33;100269.25;4994983;28;9006;-76
2022/01/29 02:07:57;;;;;;;;;2.00;2.00;;;;;2.66;67.52;100280.94;5013691;28;9030;-75
2022/01/29 02:10:27;;;;;;;;;2.00;2.00;;;;;2.68;67.30;100275.03;4994794;28;8946;-80
2022/01/29 02:13:02;;;;;;;;;4.40;3.60;;;;;2.62;67.52;100276.50;4952470;28;8885;-76
2022/01/29 02:15:32;;;;;;;;;4.40;2.00;;;;;2.66;67.33;100271.53;4953799;28;8910;-78
2022/01/29 02:18:01;;;;;;;;;5.80;4.60;;;;;2.69;67.55;100251.06;4954407;28;8860;-75
2022/01/29 02:20:32;;;;;;;;;4.40;2.40;;;;;2.61;67.58;100269.56;4968948;28;8865;-75
2022/01/29 02:23:02;;;;;;;;;1.00;1.00;;;;;2.65;67.25;100268.91;4969138;28;8861;-77
2022/01/29 02:25:34;;;;;;;;;4.40;2.80;;;;;2.52;67.82;100275.22;4950564;28;8875;-75
2022/01/29 02:28:05;;;;;;;;;1.20;1.20;;;;;2.49;67.59;100269.91;4955694;28;8886;-74
2022/01/29 02:30:37;;;;;;;;;4.20;4.20;;;;;2.69;67.18;100268.22;4955194;28;8887;-76
2022/01/29 02:33:10;;;;;;;;;2.80;2.80;;;;;2.68;67.13;100275.03;4937206;28;8879;-76
2022/01/29 02:35:41;;;;;;;;;4.00;1.00;;;;;2.71;66.66;100282.91;4965003;28;8944;-78
2022/01/29 02:38:12;;;;;;;;;4.60;2.80;;;;;2.61;67.23;100283.34;4944288;28;9614;-77
2022/01/29 02:40:46;;;;;;;;;6.20;4.20;;;;;2.51;67.59;100276.91;4995011;28;8989;-77
2022/01/29 02:43:17;;;;;;;;;3.60;2.00;;;;;2.47;67.46;100282.72;4981499;28;8980;-75
2022/01/29 02:45:47;;;;;;;;;2.40;2.40;;;;;2.46;67.64;100287.84;5014074;28;9078;-75
2022/01/29 02:48:16;;;;;;;;;2.00;1.80;;;;;2.40;67.43;100279.81;5015899;28;8869;-77
2022/01/29 02:50:45;;;;;;;;;4.60;4.00;;;;;2.40;67.45;100274.66;5010603;28;9008;-76
2022/01/29 02:53:15;;;;;;;;;2.80;2.00;;;;;2.54;67.47;100278.75;4981236;28;8961;-76
2022/01/29 02:55:44;;;;;;;;;4.20;4.20;;;;;2.42;67.39;100278.19;5031166;28;8877;-75
2022/01/29 02:58:13;;;;;;;;;4.00;4.00;;;;;2.53;67.45;100295.88;5031718;28;8862;-76
2022/01/29 03:00:42;;;;;;;;;1.40;1.00;;;;;2.48;67.24;100289.66;5029998;28;8874;-78
2022/01/29 03:03:11;;;;;;;;;5.20;5.20;;;;;2.42;67.65;100278.19;5034369;28;8852;-76
2022/01/29 03:05:39;;;;;;;;;2.80;2.80;;;;;2.45;67.38;100293.78;5017735;28;8859;-76
2022/01/29 03:08:08;;;;;;;;;5.00;2.00;;;;;2.48;67.50;100299.06;5029858;28;8953;-77
2022/01/29 03:10:38;;;;;;;;;2.00;2.00;;;;;2.44;67.62;100299.72;5029267;28;8882;-76
2022/01/29 03:13:07;;;;;;;;;6.20;4.20;;;;;2.30;68.03;100297.41;5013055;28;8856;-75
2022/01/29 03:15:36;;;;;;;;;5.40;5.40;;;;;2.40;67.73;100306.47;5030240;28;8864;-78
2022/01/29 03:18:05;;;;;;;;;4.60;2.40;;;;;2.27;67.90;100316.97;5029161;28;8866;-78
2022/01/29 03:20:34;;;;;;;;;5.20;2.40;;;;;2.30;68.17;100315.44;4980044;28;8859;-78
2022/01/29 03:23:03;;;;;;;;;2.80;2.80;;;;;2.37;67.76;100314.03;5050557;28;8852;-76
2022/01/29 03:25:31;;;;;;;;;2.20;2.20;;;;;2.31;67.87;100321.47;5050720;28;9668;-77
2022/01/29 03:28:01;;;;;;;;;2.20;2.20;;;;;2.22;68.08;100316.78;5034823;28;8864;-75
2022/01/29 03:30:30;;;;;;;;;5.00;2.00;;;;;2.15;68.63;100332.75;5051717;28;8839;-77
2022/01/29 03:32:59;;;;;;;;;4.00;4.00;;;;;2.19;68.31;100324.34;5034558;28;8843;-76
2022/01/29 03:35:27;;;;;;;;;2.80;2.80;;;;;2.17;68.52;100335.41;5034534;28;8856;-76
2022/01/29 03:37:56;;;;;;;;;2.40;2.20;;;;;2.06;68.74;100327.19;5045543;28;8901;-75
2022/01/29 03:40:25;;;;;;;;;2.00;2.00;;;;;2.01;68.85;100337.28;5014962;28;8854;-78
2022/01/29 03:43:01;;;;;;;;;6.80;4.40;;;;;2.01;68.98;100332.13;5030962;28;8873;-76
2022/01/29 03:45:32;;;;;;;;;4.40;3.00;;;;;2.07;69.16;100334.09;5032186;28;8971;-77
2022/01/29 03:48:00;;;;;;;;;2.00;2.00;;;;;1.96;68.99;100333.59;5001560;28;8856;-78
2022/01/29 03:50:30;;;;;;;;;2.60;2.60;;;;;1.94;69.46;100328.38;5067171;28;8974;-76
2022/01/29 03:52:58;;;;;;;;;4.80;4.00;;;;;2.00;69.47;100337.19;5050471;28;8860;-76
2022/01/29 03:55:27;;;;;;;;;4.00;4.00;;;;;1.92;69.72;100345.44;5028913;28;8879;-75
2022/01/29 03:57:55;;;;;;;;;2.20;2.00;;;;;1.87;69.59;100351.16;5028555;28;8859;-74
2022/01/29 04:00:24;;;;;;;;;3.80;2.40;;;;;1.86;69.69;100342.56;5029687;28;8859;-76
2022/01/29 04:02:54;;;;;;;;;4.00;1.60;;;;;1.87;69.76;100339.22;5029423;28;8860;-75
2022/01/29 04:05:26;;;;;;;;;5.20;3.60;;;;;1.80;69.49;100334.56;4991361;28;8866;-75
2022/01/29 04:07:54;;;;;;;;;4.00;4.00;;;;;1.80;69.91;100344.88;5010064;28;8920;-77
2022/01/29 04:10:24;;;;;;;;;3.00;3.00;;;;;1.78;69.92;100351.63;5010253;28;8896;-77
2022/01/29 04:12:53;;;;;;;;;4.00;4.00;;;;;1.85;70.02;100351.13;5008564;28;8979;-75
2022/01/29 04:15:23;;;;;;;;;4.20;3.40;;;;;1.79;70.09;100348.22;4975012;28;9065;-76
2022/01/29 04:17:54;;;;;;;;;7.80;5.00;;;;;1.81;69.96;100353.44;5025697;28;8874;-76
2022/01/29 04:20:22;;;;;;;;;6.20;4.60;;;;;1.85;69.97;100356.25;5009195;28;8866;-75
2022/01/29 04:22:51;;;;;;;;;25.00;24.00;;;;;1.90;69.64;100357.34;5008282;28;8838;-79
2022/01/29 04:25:20;;;;;;;;;4.00;4.00;;;;;1.89;69.47;100352.09;5023033;28;8998;-74
2022/01/29 04:27:48;;;;;;;;;6.20;5.20;;;;;1.86;69.36;100347.72;5027734;28;8883;-78
2022/01/29 04:30:27;;;;;;;;;5.60;5.60;;;;;1.93;69.33;100356.63;5028314;28;8851;-77
2022/01/29 04:33:23;;;;;;;;;5.80;5.80;;;;;1.87;69.59;100364.03;5044162;28;8874;-77
2022/01/29 04:35:52;;;;;;;;;1.40;1.40;;;;;1.86;68.89;100358.00;5011432;28;8863;-75
2022/01/29 04:38:21;;;;;;;;;4.00;2.20;;;;;1.73;69.12;100361.66;5024323;28;8884;-76
2022/01/29 04:40:49;;;;;;;;;2.00;1.00;;;;;1.78;68.57;100368.72;5008181;28;8874;-77
2022/01/29 04:43:18;;;;;;;;;2.00;2.00;;;;;1.74;68.65;100389.16;4991450;28;8900;-76
2022/01/29 04:45:47;;;;;;;;;2.80;2.80;;;;;1.66;68.56;100377.59;5008091;28;8858;-75
2022/01/29 04:48:17;;;;;;;;;5.20;5.20;;;;;1.74;67.71;100360.00;5007466;28;8858;-76
2022/01/29 04:50:46;;;;;;;;;5.20;4.00;;;;;1.86;68.16;100372.56;5008489;28;8846;-78
2022/01/29 04:53:14;;;;;;;;;4.00;4.00;;;;;1.74;68.19;100388.28;5027184;28;8871;-78
2022/01/29 04:55:43;;;;;;;;;6.00;3.40;;;;;1.75;67.71;100379.75;5027657;28;8878;-79
2022/01/29 04:58:12;;;;;;;;;4.40;4.00;;;;;1.81;67.31;100379.16;5027395;28;8858;-76
2022/01/29 05:00:40;;;;;;;;;4.00;4.00;;;;;1.80;67.05;100385.13;5043852;28;8941;-77
2022/01/29 05:03:12;;;;;;;;;4.00;4.00;;;;;1.89;66.24;100389.03;5026757;28;8868;-75
2022/01/29 05:05:43;;;;;;;;;1.60;1.00;;;;;1.91;66.56;100391.63;5027346;28;9667;-76
2022/01/29 05:08:13;;;;;;;;;5.00;4.00;;;;;1.86;66.15;100388.88;5027012;28;8851;-75
2022/01/29 05:10:42;;;;;;;;;3.40;3.40;;;;;1.89;66.48;100389.03;5010586;28;8949;-78
2022/01/29 05:13:13;;;;;;;;;8.20;6.20;;;;;1.99;65.88;100399.75;5010339;28;8879;-76
2022/01/29 05:15:52;;;;;;;;;4.80;2.20;;;;;1.98;66.10;100392.81;5028391;28;8897;-77
2022/01/29 05:26:54;;;;;;;;;3.40;3.40;;;;;2.10;64.71;100401.13;5028253;28;9709;-77
2022/01/29 05:29:26;;;;;;;;;1.20;0.80;;;;;2.23;64.53;100410.28;5028095;28;8879;-76
2022/01/29 05:31:56;;;;;;;;;2.20;2.20;;;;;1.94;64.52;100409.81;5026978;28;8851;-78
2022/01/29 05:34:24;;;;;;;;;5.20;4.00;;;;;2.01;64.38;100416.13;5024924;28;8908;-77
2022/01/29 05:36:55;;;;;;;;;1.40;1.00;;;;;1.80;65.42;100419.44;5025783;28;8843;-76
2022/01/29 05:39:24;;;;;;;;;5.20;5.20;;;;;1.87;65.28;100421.50;5026280;28;8855;-75
2022/01/29 05:41:53;;;;;;;;;4.00;3.80;;;;;1.80;65.43;100421.13;5026730;28;8974;-77
2022/01/29 05:44:22;;;;;;;;;2.40;1.20;;;;;1.68;65.60;100417.16;5028327;28;8911;-76
2022/01/29 05:46:52;;;;;;;;;4.80;4.00;;;;;1.67;66.00;100432.50;5043190;28;8893;-77
2022/01/29 05:49:20;;;;;;;;;4.40;3.20;;;;;1.67;65.24;100427.34;5009806;28;9049;-76
2022/01/29 05:51:49;;;;;;;;;1.40;1.40;;;;;1.40;65.88;100440.59;5042976;28;8879;-75
2022/01/29 05:54:19;;;;;;;;;2.80;2.20;;;;;1.41;66.23;100444.91;5026908;28;8878;-77
2022/01/29 05:56:48;;;;;;;;;6.00;3.20;;;;;1.48;66.27;100444.41;5026523;28;8859;-75
2022/01/29 05:59:17;;;;;;;;;2.80;2.80;;;;;1.39;66.58;100449.09;5026509;28;8848;-76
2022/01/29 06:01:46;;;;;;;;;4.00;4.00;;;;;1.50;66.63;100444.50;5029937;28;8840;-78
2022/01/29 06:04:15;;;;;;;;;5.40;5.20;;;;;1.49;66.59;100455.56;5030762;28;8867;-76
2022/01/29 06:06:43;;;;;;;;;4.00;2.80;;;;;1.35;66.57;100458.31;4996028;28;9612;-77
2022/01/29 06:09:12;;;;;;;;;3.20;3.00;;;;;1.36;66.49;100461.78;4997247;28;8871;-74
2022/01/29 06:11:42;;;;;;;;;3.00;3.00;;;;;1.50;65.98;100470.22;5030628;28;8847;-76
2022/01/29 06:14:12;;;;;;;;;6.20;6.20;;;;;1.48;65.76;100466.69;5032191;28;8872;-75
2022/01/29 06:16:41;;;;;;;;;5.80;5.80;;;;;1.51;65.79;100475.44;5032133;28;8833;-76
2022/01/29 06:19:09;;;;;;;;;5.20;3.80;;;;;1.50;65.82;100472.78;5032114;28;8903;-75
2022/01/29 06:21:38;;;;;;;;;2.80;2.80;;;;;1.48;65.36;100480.41;4983348;28;8868;-75
2022/01/29 06:24:07;;;;;;;;;3.20;3.20;;;;;1.47;65.27;100481.19;5015621;28;8853;-75
2022/01/29 06:26:35;;;;;;;;;3.40;3.20;;;;;1.41;64.40;100482.59;5031968;28;8902;-76
2022/01/29 06:29:05;;;;;;;;;5.80;2.80;;;;;1.38;65.11;100490.13;5011861;28;9668;-76
2022/01/29 06:31:35;;;;;;;;;3.60;3.60;;;;;1.29;65.45;100494.00;5011128;28;8847;-77
2022/01/29 06:34:03;;;;;;;;;3.60;3.60;;;;;1.28;65.70;100504.19;4992740;28;8854;-75
2022/01/29 06:36:32;;;;;;;;;4.20;4.20;;;;;1.30;65.00;100512.84;4992574;28;9034;-76
2022/01/29 06:39:01;;;;;;;;;3.20;3.20;;;;;1.47;64.76;100518.88;4976507;28;8866;-77
2022/01/29 06:41:29;;;;;;;;;3.80;3.80;;;;;1.34;65.36;100518.25;5008681;28;8869;-75
2022/01/29 06:43:58;;;;;;;;;2.40;2.40;;;;;1.28;65.50;100525.63;5008529;28;9008;-76
2022/01/29 06:46:28;;;;;;;;;2.20;2.20;;;;;1.24;66.18;100521.13;4976308;28;8997;-77
2022/01/29 06:48:57;;;;;;;;;5.00;2.80;;;;;1.35;66.04;100534.53;4994176;28;8887;-76
2022/01/29 06:51:26;;;;;;;;;6.40;4.20;;;;;1.32;66.37;100531.81;5016151;28;8890;-74
2022/01/29 06:53:54;;;;;;;;;7.40;6.80;;;;;1.44;66.78;100542.75;4972939;28;8872;-75
2022/01/29 06:56:27;;;;;;;;;5.80;4.40;;;;;1.32;66.33;100539.50;5008328;28;8971;-75
2022/01/29 06:58:55;;;;;;;;;4.20;3.60;;;;;1.36;66.60;100541.44;5008134;28;8858;-74
2022/01/29 07:01:41;;;;;;;;;8.80;4.80;;;;;1.27;67.04;100538.41;5039900;28;8852;-75
2022/01/29 07:04:11;;;;;;;;;5.20;4.00;;;;;1.30;67.41;100554.84;5005447;28;8868;-74
2022/01/29 07:06:39;;;;;;;;;5.40;4.80;;;;;1.27;67.15;100548.69;5011056;28;9819;-73
2022/01/29 07:09:08;;;;;;;;;6.80;6.80;;;;;1.34;67.37;100548.19;5026749;28;8930;-74
2022/01/29 07:11:37;;;;;;;;;9.20;8.80;;;;;1.45;67.27;100551.31;5027304;28;8882;-73
2022/01/29 07:14:05;;;;;;;;;8.60;7.00;;;;;1.33;67.33;100557.59;5027221;28;8860;-74
2022/01/29 07:16:35;;;;;;;;;6.00;5.60;;;;;1.52;67.28;100545.69;4994479;28;8852;-74
2022/01/29 07:19:05;;;;;;;;;7.00;7.00;;;;;1.51;67.38;100557.69;5024975;28;8945;-74
2022/01/29 07:21:34;;;;;;;;;6.20;5.60;;;;;1.38;67.62;100562.06;5026836;28;8985;-72
2022/01/29 07:24:02;;;;;;;;;6.00;6.00;;;;;1.40;68.00;100560.47;5045151;28;8879;-74
2022/01/29 07:26:32;;;;;;;;;8.20;7.60;;;;;1.37;68.34;100563.78;5029447;28;8957;-74
2022/01/29 07:29:00;;;;;;;;;8.60;8.60;;;;;1.39;68.22;100575.00;5044492;28;8860;-73
2022/01/29 07:31:29;;;;;;;;;14.60;12.60;;;;;1.37;68.62;100571.47;5028505;28;8962;-74
2022/01/29 07:33:58;;;;;;;;;8.60;7.00;;;;;1.35;68.66;100575.66;5027303;28;9009;-73
2022/01/29 07:36:28;;;;;;;;;10.80;10.80;;;;;1.36;69.11;100575.75;5025447;28;8867;-73
2022/01/29 07:38:56;;;;;;;;;8.00;8.00;;;;;1.32;69.17;100581.53;5043019;28;8890;-74
2022/01/29 07:41:25;;;;;;;;;15.00;13.20;;;;;1.24;69.42;100590.50;5026222;28;8954;-74
2022/01/29 07:43:54;;;;;;;;;9.80;9.20;;;;;1.14;70.02;100583.09;4993034;28;8876;-74
2022/01/29 07:46:22;;;;;;;;;10.00;9.40;;;;;1.23;69.85;100580.13;5026568;28;8901;-74
2022/01/29 07:48:53;;;;;;;;;12.40;9.60;;;;;1.13;70.00;100577.06;5042986;28;8875;-74
2022/01/29 07:51:21;;;;;;;;;16.50;11.75;;;;;1.12;69.76;100590.72;5023712;28;8898;-75
2022/01/29 07:53:52;;;;;;;;;10.00;7.40;;;;;1.11;69.53;100588.06;5026172;28;9049;-73
2022/01/29 07:56:21;;;;;;;;;13.60;12.00;;;;;1.23;70.02;100582.69;5041653;28;8882;-73
2022/01/29 07:58:50;;;;;;;;;4.60;4.60;;;;;1.23;68.99;100592.97;5011816;28;8850;-76
2022/01/29 08:01:19;;;;;;;;;7.20;7.20;;;;;1.36;68.64;100593.72;5044553;28;8862;-73
2022/01/29 08:03:50;;;;;;;;;7.40;6.00;;;;;1.13;69.13;100596.72;5028396;28;8869;-73
2022/01/29 08:06:22;;;;;;;;;8.20;7.00;;;;;1.29;68.08;100606.16;5043869;28;9041;-73
2022/01/29 08:08:53;;;;;;;;;4.60;3.80;;;;;1.34;68.13;100600.47;5044562;28;8966;-73
2022/01/29 08:11:21;;;;;;;;;4.00;4.00;;;;;1.33;68.00;100597.81;5024996;28;8858;-74
2022/01/29 08:13:50;;;;;;;;;6.00;5.80;;;;;1.32;67.22;100601.19;5044752;28;8858;-75
2022/01/29 08:16:19;;;;;;;;;7.40;7.00;;;;;1.50;67.05;100612.44;5044585;28;8967;-74
2022/01/29 08:18:48;;;;;;;;;10.60;5.80;;;;;1.29;67.39;100609.63;5011612;28;8849;-74
2022/01/29 08:21:17;;;;;;;;;3.80;3.80;;;;;1.21;67.24;100613.47;5027744;28;8963;-75
2022/01/29 08:23:47;;;;;;;;;5.60;5.60;;;;;1.28;67.02;100612.09;5026658;28;8842;-74
2022/01/29 08:26:17;;;;;;;;;5.80;4.00;;;;;1.28;66.56;100619.81;5024791;28;8865;-74
2022/01/29 08:28:45;;;;;;;;;12.20;9.80;;;;;1.18;66.83;100626.13;5027074;28;8867;-74
2022/01/29 08:31:14;;;;;;;;;6.80;2.60;;;;;1.28;66.39;100622.38;4992135;28;8929;-73
2022/01/29 08:33:43;;;;;;;;;7.20;6.00;;;;;1.40;66.30;100611.88;5025918;28;8883;-75
2022/01/29 08:36:12;;;;;;;;;5.20;5.20;;;;;1.40;65.60;100623.06;5026903;28;9665;-73
2022/01/29 08:38:40;;;;;;;;;7.60;6.60;;;;;1.79;64.53;100615.66;5041563;28;8905;-74
2022/01/29 08:41:09;;;;;;;;;14.00;13.00;;;;;2.02;63.84;100621.97;5042309;28;8879;-75
2022/01/29 08:43:39;;;;;;;;;9.20;6.80;;;;;1.89;63.74;100624.72;5007730;28;9715;-73
2022/01/29 08:46:08;;;;;;;;;8.20;7.00;;;;;1.72;64.83;100629.88;5026705;28;8871;-74
2022/01/29 08:48:36;;;;;;;;;6.60;4.20;;;;;1.68;63.88;100633.13;5027122;28;9746;-72
2022/01/29 08:51:05;;;;;;;;;6.00;5.00;;;;;1.36;64.71;100633.94;5026524;28;8852;-73
2022/01/29 08:53:34;;;;;;;;;8.20;7.40;;;;;1.22;65.89;100640.03;5028476;28;8847;-73
2022/01/29 08:56:03;;;;;;;;;7.00;5.60;;;;;1.12;65.92;100638.66;5026066;28;8881;-73
2022/01/29 08:58:32;;;;;;;;;9.20;5.80;;;;;1.45;65.63;100649.84;5023265;28;8977;-73
2022/01/29 09:01:07;;;;;;;;;7.20;6.00;;;;;1.60;64.65;100647.22;5026275;28;8867;-73
2022/01/29 09:03:37;;;;;;;;;12.80;10.20;;;;;1.56;64.38;100656.47;5024526;28;9073;-72
2022/01/29 09:06:07;;;;;;;;;10.00;10.00;;;;;1.53;64.81;100656.31;5025482;28;8935;-74
2022/01/29 09:08:36;;;;;;;;;5.20;4.20;;;;;1.42;64.85;100660.00;5008447;28;8852;-74
2022/01/29 09:11:04;;;;;;;;;7.20;4.00;;;;;1.78;63.27;100649.00;4992470;28;8872;-73
2022/01/29 09:13:33;;;;;;;;;8.40;7.20;;;;;2.16;62.38;100651.00;5025165;28;8878;-73
2022/01/29 09:16:03;;;;;;;;;7.40;7.00;;;;;1.84;62.80;100660.50;5011559;28;8982;-72
2022/01/29 09:18:32;;;;;;;;;8.80;5.80;;;;;2.03;62.85;100646.03;4984320;28;8873;-74
2022/01/29 09:21:01;;;;;;;;;7.60;7.60;;;;;2.25;62.08;100648.91;4982202;28;8935;-73
2022/01/29 09:23:30;;;;;;;;;10.60;8.80;;;;;2.08;62.41;100649.69;4985011;28;8979;-73
2022/01/29 09:26:02;;;;;;;;;5.20;4.80;;;;;2.13;61.87;100654.28;4984997;28;8878;-72
2022/01/29 09:28:31;;;;;;;;;7.00;7.00;;;;;2.14;62.19;100656.06;4985581;28;8878;-73
2022/01/29 09:30:59;;;;;;;;;8.40;8.40;;;;;2.20;61.78;100647.78;4968371;28;8905;-74
2022/01/29 09:33:29;;;;;;;;;11.60;9.00;;;;;2.61;61.07;100648.97;4985578;28;8882;-73
2022/01/29 09:35:59;;;;;;;;;5.40;5.40;;;;;2.76;59.36;100650.50;4985117;28;8908;-74
2022/01/29 09:38:27;;;;;;;;;5.80;5.00;;;;;3.06;59.17;100643.38;4969256;28;9016;-74
2022/01/29 09:40:56;;;;;;;;;7.40;7.40;;;;;3.38;58.19;100644.88;4985027;28;8892;-66
2022/01/29 09:43:27;;;;;;;;;4.00;4.00;;;;;3.46;59.62;100655.53;4985142;28;8927;-68
2022/01/29 09:45:56;;;;;;;;;7.20;6.40;;;;;3.22;58.94;100647.56;4968123;28;9645;-67
2022/01/29 09:48:28;;;;;;;;;4.20;3.60;;;;;3.13;59.17;100650.59;4985109;28;8896;-71
2022/01/29 09:50:59;;;;;;;;;5.00;5.00;;;;;2.93;58.85;100655.69;5042141;28;9013;-73
2022/01/29 09:53:28;;;;;;;;;7.60;6.20;;;;;3.00;59.04;100631.06;5027048;28;8885;-71
2022/01/29 09:55:56;;;;;;;;;11.40;7.60;;;;;3.61;58.09;100633.03;5025285;28;8861;-72
2022/01/29 09:58:25;;;;;;;;;8.00;7.00;;;;;3.57;57.08;100640.56;5024319;28;8856;-73
2022/01/29 10:00:53;;;;;;;;;7.00;7.00;;;;;3.38;58.22;100638.84;5040376;28;9018;-73
2022/01/29 10:03:22;;;;;;;;;9.60;9.60;;;;;3.31;58.72;100641.13;5026907;28;8874;-73
2022/01/29 10:05:53;;;;;;;;;9.60;7.80;;;;;3.06;59.65;100635.63;5009195;28;8827;-72
2022/01/29 10:08:24;;;;;;;;;13.40;10.80;;;;;3.10;59.41;100637.53;5025765;28;8847;-72
2022/01/29 10:10:55;;;;;;;;;5.80;5.00;;;;;2.89;58.95;100638.31;5027130;28;8848;-74
2022/01/29 10:13:26;;;;;;;;;7.60;7.60;;;;;2.74;60.23;100637.53;5023554;28;8859;-73
2022/01/29 10:16:06;;;;;;;;;13.80;10.00;;;;;2.64;60.77;100636.22;5024159;28;8863;-73
2022/01/29 10:18:35;;;;;;;;;13.00;10.00;;;;;2.54;60.71;100634.00;5008246;28;8872;-72
2022/01/29 10:21:12;;;;;;;;;12.00;10.20;;;;;2.62;61.56;100629.25;5024859;28;8863;-73
2022/01/29 10:23:42;;;;;;;;;16.60;11.60;;;;;2.93;60.76;100624.75;5008409;28;8864;-75
2022/01/29 10:26:25;;;;;;;;;6.00;6.00;;;;;2.85;61.17;100635.50;5024715;28;8826;-77
2022/01/29 10:28:55;;;;;;;;;9.20;7.00;;;;;2.60;61.77;100642.03;5007729;28;8856;-75
2022/01/29 10:31:24;;;;;;;;;11.80;10.80;;;;;2.50;62.24;100640.69;5023243;28;8824;-74
2022/01/29 10:33:53;;;;;;;;;11.00;10.60;;;;;2.60;62.59;100642.03;4922786;28;13125;-75
2022/01/29 10:36:22;;;;;;;;;12.40;11.80;;;;;2.54;62.33;100641.75;4973842;28;8856;-75
2022/01/29 10:38:55;;;;;;;;;8.00;8.00;;;;;2.59;62.25;100636.81;5007528;28;8872;-73
2022/01/29 10:41:26;;;;;;;;;13.00;13.00;;;;;2.62;61.88;100642.13;5024719;28;8954;-75
2022/01/29 10:43:56;;;;;;;;;11.00;11.00;;;;;2.80;60.84;100643.03;5025247;28;8904;-75
2022/01/29 10:46:26;;;;;;;;;10.40;9.60;;;;;2.77;61.20;100636.84;5026717;28;8848;-73
2022/01/29 10:48:57;;;;;;;;;10.20;9.60;;;;;2.91;60.91;100634.13;5029373;28;8925;-75
2022/01/29 10:51:26;;;;;;;;;10.40;10.00;;;;;3.11;60.00;100629.00;5029168;28;8867;-74
2022/01/29 10:54:16;;;;;;;;;12.20;9.00;;;;;3.21;59.99;100620.88;5024274;28;8864;-75
2022/01/29 10:56:51;;;;;;;;;11.80;10.60;;;;;3.05;60.23;100629.59;5012477;28;8978;-75
2022/01/29 10:59:20;;;;;;;;;9.60;9.60;;;;;2.90;61.44;100616.00;5025403;28;8875;-73
2022/01/29 11:01:51;;;;;;;;;15.20;13.00;;;;;3.01;61.23;100614.81;5043482;28;9081;-74
2022/01/29 11:04:20;;;;;;;;;8.80;8.80;;;;;3.29;60.11;100617.00;5028303;28;8921;-73
2022/01/29 11:06:52;;;;;;;;;11.00;9.60;;;;;3.46;60.30;100609.13;5011889;28;8848;-72
2022/01/29 11:09:23;;;;;;;;;16.00;13.60;;;;;3.84;59.42;100612.53;5028825;28;9592;-72
2022/01/29 11:11:53;;;;;;;;;7.60;7.60;;;;;3.06;60.65;100608.19;5028638;28;8856;-72
2022/01/29 11:14:24;;;;;;;;;7.80;7.00;;;;;3.08;60.80;100603.09;5043263;28;8848;-73
2022/01/29 11:16:54;;;;;;;;;11.60;10.00;;;;;3.11;60.80;100608.41;5028523;28;8893;-75
2022/01/29 11:19:23;;;;;;;;;14.20;13.20;;;;;3.04;61.50;100614.94;5026799;28;8875;-71
2022/01/29 11:21:54;;;;;;;;;17.00;12.40;;;;;3.05;61.85;100618.44;5027974;28;9009;-72
2022/01/29 11:24:27;;;;;;;;;13.80;11.40;;;;;2.65;62.09;100617.41;5042226;28;8986;-73
2022/01/29 11:26:56;;;;;;;;;13.00;10.80;;;;;2.57;62.11;100617.81;5026537;28;8853;-75
2022/01/29 11:29:27;;;;;;;;;13.80;10.80;;;;;2.58;63.07;100614.47;5025347;28;8901;-72
2022/01/29 11:32:25;;;;;;;;;11.40;9.20;;;;;2.56;63.43;100613.50;5027003;28;9005;-72
2022/01/29 11:35:11;;;;;;;;;14.80;13.60;;;;;2.72;62.82;100603.09;4977107;28;8864;-76
2022/01/29 11:38:08;;;;;;;;;17.25;17.25;;;;;2.69;62.12;100606.44;5029109;28;9001;-74
2022/01/29 11:40:39;;;;;;;;;10.00;8.00;;;;;2.58;62.37;100609.31;4968142;28;8884;-76
2022/01/29 11:43:24;;;;;;;;;9.20;9.20;;;;;2.60;62.12;100607.69;4966865;28;8896;-72
2022/01/29 11:45:57;;;;;;;;;6.60;4.60;;;;;2.67;60.59;100600.31;4949255;28;8869;-77
2022/01/29 11:48:54;;;;;;;;;10.80;10.80;;;;;2.86;60.06;100603.78;4915654;28;8967;-75
2022/01/29 11:51:53;;;;;;;;;17.40;13.80;;;;;2.97;59.05;100586.25;4949193;28;8877;-74
2022/01/29 11:54:25;;;;;;;;;7.00;7.00;;;;;2.95;59.04;100598.16;4950390;28;8877;-74
2022/01/29 11:57:12;;;;;;;;;6.60;6.20;;;;;2.83;59.53;100583.91;4961563;28;8865;-75
2022/01/29 11:59:41;;;;;;;;;7.00;6.60;;;;;2.80;59.16;100585.44;4947180;28;8936;-76
2022/01/29 12:02:40;;;;;;;;;6.40;5.80;;;;;2.70;59.47;100573.81;4918935;28;8862;-75